sensor_id;sensor_type;location;lat;lon;timestamp;pressure;altitude;pressure_sealevel;temperature;humidity
59170;BME280;52474;52.236;5.114;2022-12-07T00:01:19;101923.81;;;2.53;100.00
59170;BME280;52474;52.236;5.114;2022-12-07T00:03:47;101918.56;;;2.53;100.00
59170;BME280;52474;52.236;5.114;2022-12-07T00:06:14;101905.03;;;2.42;100.00
59170;BME280;52474;52.236;5.114;2022-12-07T00:08:40;101922.00;;;2.55;100.00
59170;BME280;52474;52.236;5.114;2022-12-07T00:11:09;101920.16;;;2.58;100.00
59170;BME280;52474;52.236;5.114;2022-12-07T00:13:36;101920.16;;;2.58;100.00
59170;BME280;52474;52.236;5.114;2022-12-07T00:16:04;101911.41;;;2.58;100.00
59170;BME280;52474;52.236;5.114;2022-12-07T00:18:30;101891.81;;;2.46;100.00
59170;BME280;52474;52.236;5.114;2022-12-07T00:21:08;101900.34;;;2.51;100.00
59170;BME280;52474;52.236;5.114;2022-12-07T00:23:34;101906.25;;;2.56;100.00
59170;BME280;52474;52.236;5.114;2022-12-07T00:26:05;101890.31;;;2.39;100.00
59170;BME280;52474;52.236;5.114;2022-12-07T00:28:30;101906.88;;;2.38;100.00
59170;BME280;52474;52.236;5.114;2022-12-07T00:31:06;101903.84;;;2.25;100.00
59170;BME280;52474;52.236;5.114;2022-12-07T00:33:33;101900.63;;;2.17;100.00
59170;BME280;52474;52.236;5.114;2022-12-07T00:36:00;101895.72;;;2.08;100.00
59170;BME280;52474;52.236;5.114;2022-12-07T00:38:28;101895.03;;;2.01;100.00
59170;BME280;52474;52.236;5.114;2022-12-07T00:40:59;101885.91;;;1.88;100.00
59170;BME280;52474;52.236;5.114;2022-12-07T00:43:26;101871.19;;;1.85;100.00
59170;BME280;52474;52.236;5.114;2022-12-07T00:45:52;101883.97;;;1.95;100.00
59170;BME280;52474;52.236;5.114;2022-12-07T00:48:19;101874.66;;;1.86;100.00
59170;BME280;52474;52.236;5.114;2022-12-07T00:50:44;101893.16;;;1.80;100.00
59170;BME280;52474;52.236;5.114;2022-12-07T00:53:10;101898.25;;;1.83;100.00
59170;BME280;52474;52.236;5.114;2022-12-07T00:55:36;101876.66;;;1.78;100.00
59170;BME280;52474;52.236;5.114;2022-12-07T00:58:02;101899.13;;;1.83;100.00
59170;BME280;52474;52.236;5.114;2022-12-07T01:00:28;101875.00;;;1.75;100.00
59170;BME280;52474;52.236;5.114;2022-12-07T01:02:53;101885.22;;;1.83;100.00
59170;BME280;52474;52.236;5.114;2022-12-07T01:05:19;101886.91;;;1.84;100.00
59170;BME280;52474;52.236;5.114;2022-12-07T01:07:45;101891.41;;;1.79;100.00
59170;BME280;52474;52.236;5.114;2022-12-07T01:10:12;101873.44;;;1.69;100.00
59170;BME280;52474;52.236;5.114;2022-12-07T01:12:39;101876.75;;;1.75;100.00
59170;BME280;52474;52.236;5.114;2022-12-07T01:15:06;101872.09;;;1.58;100.00
59170;BME280;52474;52.236;5.114;2022-12-07T01:17:32;101889.19;;;1.66;100.00
59170;BME280;52474;52.236;5.114;2022-12-07T01:19:57;101875.44;;;1.61;100.00
59170;BME280;52474;52.236;5.114;2022-12-07T01:22:23;101876.13;;;1.66;100.00
59170;BME280;52474;52.236;5.114;2022-12-07T01:24:49;101896.53;;;1.82;100.00
59170;BME280;52474;52.236;5.114;2022-12-07T01:27:14;101879.41;;;1.73;100.00
59170;BME280;52474;52.236;5.114;2022-12-07T01:29:40;101888.91;;;1.76;100.00
59170;BME280;52474;52.236;5.114;2022-12-07T01:32:05;101905.72;;;1.67;100.00
59170;BME280;52474;52.236;5.114;2022-12-07T01:34:31;101905.56;;;1.71;100.00
59170;BME280;52474;52.236;5.114;2022-12-07T01:37:00;101897.16;;;1.62;100.00
59170;BME280;52474;52.236;5.114;2022-12-07T01:39:26;101907.16;;;2.04;100.00
59170;BME280;52474;52.236;5.114;2022-12-07T01:41:52;101907.00;;;2.35;100.00
59170;BME280;52474;52.236;5.114;2022-12-07T01:44:31;101903.66;;;2.56;100.00
59170;BME280;52474;52.236;5.114;2022-12-07T01:47:03;101909.03;;;2.77;100.00
59170;BME280;52474;52.236;5.114;2022-12-07T01:52:06;101878.56;;;2.76;100.00
59170;BME280;52474;52.236;5.114;2022-12-07T01:54:35;101877.44;;;2.83;100.00
59170;BME280;52474;52.236;5.114;2022-12-07T01:57:02;101896.19;;;2.94;100.00
59170;BME280;52474;52.236;5.114;2022-12-07T01:59:28;101883.25;;;2.90;100.00
59170;BME280;52474;52.236;5.114;2022-12-07T02:01:55;101888.56;;;2.88;100.00
59170;BME280;52474;52.236;5.114;2022-12-07T02:04:22;101897.44;;;2.84;100.00
59170;BME280;52474;52.236;5.114;2022-12-07T02:06:48;101880.13;;;2.80;100.00
59170;BME280;52474;52.236;5.114;2022-12-07T02:09:14;101867.41;;;2.71;100.00
59170;BME280;52474;52.236;5.114;2022-12-07T02:11:40;101869.81;;;2.75;100.00
59170;BME280;52474;52.236;5.114;2022-12-07T02:14:06;101881.25;;;2.73;100.00
59170;BME280;52474;52.236;5.114;2022-12-07T02:22:04;101858.44;;;2.53;100.00
59170;BME280;52474;52.236;5.114;2022-12-07T02:24:54;101866.97;;;2.58;100.00
59170;BME280;52474;52.236;5.114;2022-12-07T02:27:45;101863.66;;;2.53;100.00
59170;BME280;52474;52.236;5.114;2022-12-07T02:30:17;101861.56;;;2.39;100.00
59170;BME280;52474;52.236;5.114;2022-12-07T02:35:25;101861.72;;;2.34;100.00
59170;BME280;52474;52.236;5.114;2022-12-07T02:37:55;101867.94;;;2.30;100.00
59170;BME280;52474;52.236;5.114;2022-12-07T02:40:48;101869.69;;;2.30;100.00
59170;BME280;52474;52.236;5.114;2022-12-07T02:43:17;101874.81;;;2.33;100.00
59170;BME280;52474;52.236;5.114;2022-12-07T02:45:46;101881.44;;;2.43;100.00
59170;BME280;52474;52.236;5.114;2022-12-07T02:48:15;101871.22;;;2.61;100.00
59170;BME280;52474;52.236;5.114;2022-12-07T02:50:49;101855.91;;;2.75;100.00
59170;BME280;52474;52.236;5.114;2022-12-07T02:53:36;101862.75;;;2.79;100.00
59170;BME280;52474;52.236;5.114;2022-12-07T03:01:43;101867.34;;;2.72;100.00
59170;BME280;52474;52.236;5.114;2022-12-07T03:07:01;101866.44;;;2.48;100.00
59170;BME280;52474;52.236;5.114;2022-12-07T03:12:48;101861.63;;;2.11;100.00
59170;BME280;52474;52.236;5.114;2022-12-07T03:15:27;101848.13;;;1.98;100.00
59170;BME280;52474;52.236;5.114;2022-12-07T03:17:55;101854.47;;;1.91;100.00
59170;BME280;52474;52.236;5.114;2022-12-07T03:20:25;101856.41;;;1.84;100.00
59170;BME280;52474;52.236;5.114;2022-12-07T03:22:52;101864.31;;;1.83;100.00
59170;BME280;52474;52.236;5.114;2022-12-07T03:25:19;101840.50;;;1.65;100.00
59170;BME280;52474;52.236;5.114;2022-12-07T03:28:01;101863.50;;;1.81;100.00
59170;BME280;52474;52.236;5.114;2022-12-07T03:30:56;101864.88;;;1.92;100.00
59170;BME280;52474;52.236;5.114;2022-12-07T03:33:34;101849.13;;;1.94;100.00
59170;BME280;52474;52.236;5.114;2022-12-07T03:36:09;101867.13;;;2.03;100.00
59170;BME280;52474;52.236;5.114;2022-12-07T03:38:41;101863.69;;;2.01;100.00
59170;BME280;52474;52.236;5.114;2022-12-07T03:43:46;101871.09;;;2.15;100.00
59170;BME280;52474;52.236;5.114;2022-12-07T03:46:24;101848.41;;;2.15;100.00
59170;BME280;52474;52.236;5.114;2022-12-07T03:49:09;101845.53;;;2.23;100.00
59170;BME280;52474;52.236;5.114;2022-12-07T03:51:42;101831.78;;;2.18;100.00
59170;BME280;52474;52.236;5.114;2022-12-07T03:54:28;101841.06;;;2.27;100.00
59170;BME280;52474;52.236;5.114;2022-12-07T03:56:56;101844.41;;;2.30;100.00
59170;BME280;52474;52.236;5.114;2022-12-07T03:59:24;101841.22;;;2.22;100.00
59170;BME280;52474;52.236;5.114;2022-12-07T04:01:53;101830.13;;;2.15;100.00
59170;BME280;52474;52.236;5.114;2022-12-07T04:04:20;101833.19;;;2.02;100.00
59170;BME280;52474;52.236;5.114;2022-12-07T04:06:46;101836.22;;;1.89;100.00
59170;BME280;52474;52.236;5.114;2022-12-07T04:09:12;101820.34;;;1.69;100.00
59170;BME280;52474;52.236;5.114;2022-12-07T04:11:40;101838.69;;;1.67;100.00
59170;BME280;52474;52.236;5.114;2022-12-07T04:14:05;101831.97;;;1.60;100.00
59170;BME280;52474;52.236;5.114;2022-12-07T04:17:05;101851.75;;;1.67;100.00
59170;BME280;52474;52.236;5.114;2022-12-07T04:19:32;101851.41;;;1.78;100.00
59170;BME280;52474;52.236;5.114;2022-12-07T04:21:59;101855.72;;;2.31;100.00
59170;BME280;52474;52.236;5.114;2022-12-07T04:24:26;101830.03;;;2.44;100.00
59170;BME280;52474;52.236;5.114;2022-12-07T04:26:52;101845.75;;;2.66;100.00
59170;BME280;52474;52.236;5.114;2022-12-07T04:29:18;101852.56;;;2.71;100.00
59170;BME280;52474;52.236;5.114;2022-12-07T04:31:44;101836.19;;;2.66;100.00
59170;BME280;52474;52.236;5.114;2022-12-07T04:34:10;101831.22;;;2.58;100.00
59170;BME280;52474;52.236;5.114;2022-12-07T04:36:37;101834.81;;;2.56;100.00
59170;BME280;52474;52.236;5.114;2022-12-07T04:39:05;101836.91;;;2.46;100.00
59170;BME280;52474;52.236;5.114;2022-12-07T04:41:32;101829.50;;;2.34;100.00
59170;BME280;52474;52.236;5.114;2022-12-07T04:44:01;101833.25;;;2.25;100.00
59170;BME280;52474;52.236;5.114;2022-12-07T04:46:29;101833.66;;;2.14;100.00
59170;BME280;52474;52.236;5.114;2022-12-07T04:48:56;101836.69;;;2.02;100.00
59170;BME280;52474;52.236;5.114;2022-12-07T04:51:24;101829.03;;;1.96;100.00
59170;BME280;52474;52.236;5.114;2022-12-07T04:53:50;101830.00;;;1.93;100.00
59170;BME280;52474;52.236;5.114;2022-12-07T04:56:17;101820.47;;;1.92;100.00
59170;BME280;52474;52.236;5.114;2022-12-07T04:58:45;101810.97;;;1.90;100.00
59170;BME280;52474;52.236;5.114;2022-12-07T05:01:11;101825.03;;;1.86;100.00
59170;BME280;52474;52.236;5.114;2022-12-07T05:03:37;101821.72;;;1.81;100.00
59170;BME280;52474;52.236;5.114;2022-12-07T05:06:04;101803.00;;;1.68;100.00
59170;BME280;52474;52.236;5.114;2022-12-07T05:08:29;101828.03;;;1.74;100.00
59170;BME280;52474;52.236;5.114;2022-12-07T05:10:55;101801.59;;;1.58;100.00
59170;BME280;52474;52.236;5.114;2022-12-07T05:13:21;101827.47;;;1.64;100.00
59170;BME280;52474;52.236;5.114;2022-12-07T05:15:47;101799.44;;;1.42;100.00
59170;BME280;52474;52.236;5.114;2022-12-07T05:18:14;101820.03;;;1.52;100.00
59170;BME280;52474;52.236;5.114;2022-12-07T05:20:40;101806.63;;;1.36;100.00
59170;BME280;52474;52.236;5.114;2022-12-07T05:23:06;101822.19;;;1.39;100.00
59170;BME280;52474;52.236;5.114;2022-12-07T05:25:32;101812.41;;;1.45;100.00
59170;BME280;52474;52.236;5.114;2022-12-07T05:27:58;101809.19;;;1.37;100.00
59170;BME280;52474;52.236;5.114;2022-12-07T05:30:24;101814.25;;;1.42;100.00
59170;BME280;52474;52.236;5.114;2022-12-07T05:32:50;101832.91;;;1.58;100.00
59170;BME280;52474;52.236;5.114;2022-12-07T05:35:17;101825.00;;;1.59;100.00
59170;BME280;52474;52.236;5.114;2022-12-07T05:37:43;101823.25;;;1.60;100.00
59170;BME280;52474;52.236;5.114;2022-12-07T05:40:09;101802.88;;;1.44;100.00
59170;BME280;52474;52.236;5.114;2022-12-07T05:42:35;101798.84;;;1.34;100.00
59170;BME280;52474;52.236;5.114;2022-12-07T05:45:00;101823.59;;;1.49;100.00
59170;BME280;52474;52.236;5.114;2022-12-07T05:47:26;101806.31;;;1.45;100.00
59170;BME280;52474;52.236;5.114;2022-12-07T05:49:52;101825.72;;;1.64;100.00
59170;BME280;52474;52.236;5.114;2022-12-07T05:52:18;101819.69;;;1.62;100.00
59170;BME280;52474;52.236;5.114;2022-12-07T05:54:43;101818.84;;;1.62;100.00
59170;BME280;52474;52.236;5.114;2022-12-07T05:57:09;101818.91;;;1.60;100.00
59170;BME280;52474;52.236;5.114;2022-12-07T05:59:34;101814.31;;;1.67;100.00
59170;BME280;52474;52.236;5.114;2022-12-07T06:02:12;101815.31;;;1.89;100.00
59170;BME280;52474;52.236;5.114;2022-12-07T06:04:41;101809.78;;;1.99;100.00
59170;BME280;52474;52.236;5.114;2022-12-07T06:07:07;101814.06;;;2.01;100.00
59170;BME280;52474;52.236;5.114;2022-12-07T06:09:34;101817.69;;;1.97;100.00
59170;BME280;52474;52.236;5.114;2022-12-07T06:12:00;101828.34;;;1.91;100.00
59170;BME280;52474;52.236;5.114;2022-12-07T06:14:45;101824.31;;;1.81;100.00
59170;BME280;52474;52.236;5.114;2022-12-07T06:17:12;101814.47;;;1.62;100.00
59170;BME280;52474;52.236;5.114;2022-12-07T06:19:38;101828.31;;;1.64;100.00
59170;BME280;52474;52.236;5.114;2022-12-07T06:22:04;101832.53;;;1.70;100.00
59170;BME280;52474;52.236;5.114;2022-12-07T06:24:30;101819.63;;;1.92;100.00
59170;BME280;52474;52.236;5.114;2022-12-07T06:26:56;101819.94;;;2.08;100.00
59170;BME280;52474;52.236;5.114;2022-12-07T06:29:22;101812.13;;;2.06;100.00
59170;BME280;52474;52.236;5.114;2022-12-07T06:31:47;101814.75;;;2.06;100.00
59170;BME280;52474;52.236;5.114;2022-12-07T06:34:18;101811.28;;;2.06;100.00
59170;BME280;52474;52.236;5.114;2022-12-07T06:36:45;101820.84;;;2.07;100.00
59170;BME280;52474;52.236;5.114;2022-12-07T06:39:11;101827.19;;;2.00;100.00
59170;BME280;52474;52.236;5.114;2022-12-07T06:41:37;101826.06;;;2.07;100.00
59170;BME280;52474;52.236;5.114;2022-12-07T06:44:04;101815.84;;;1.99;100.00
59170;BME280;52474;52.236;5.114;2022-12-07T06:46:30;101833.00;;;2.08;100.00
59170;BME280;52474;52.236;5.114;2022-12-07T06:48:56;101826.34;;;2.24;100.00
59170;BME280;52474;52.236;5.114;2022-12-07T06:51:22;101820.00;;;2.31;100.00
59170;BME280;52474;52.236;5.114;2022-12-07T06:53:48;101798.31;;;2.28;100.00
59170;BME280;52474;52.236;5.114;2022-12-07T06:56:14;101817.38;;;2.31;100.00
59170;BME280;52474;52.236;5.114;2022-12-07T06:58:40;101814.94;;;2.27;100.00
59170;BME280;52474;52.236;5.114;2022-12-07T07:01:10;101809.06;;;2.20;100.00
59170;BME280;52474;52.236;5.114;2022-12-07T07:03:36;101823.28;;;2.11;100.00
59170;BME280;52474;52.236;5.114;2022-12-07T07:06:02;101818.28;;;2.05;100.00
59170;BME280;52474;52.236;5.114;2022-12-07T07:08:28;101817.78;;;1.94;100.00
59170;BME280;52474;52.236;5.114;2022-12-07T07:10:53;101820.78;;;1.82;100.00
59170;BME280;52474;52.236;5.114;2022-12-07T07:13:19;101822.13;;;1.68;100.00
59170;BME280;52474;52.236;5.114;2022-12-07T07:15:45;101805.38;;;1.47;100.00
59170;BME280;52474;52.236;5.114;2022-12-07T07:18:11;101808.91;;;1.46;100.00
59170;BME280;52474;52.236;5.114;2022-12-07T07:20:37;101820.72;;;1.58;100.00
59170;BME280;52474;52.236;5.114;2022-12-07T07:23:02;101801.81;;;1.50;100.00
59170;BME280;52474;52.236;5.114;2022-12-07T07:25:29;101825.84;;;1.60;100.00
59170;BME280;52474;52.236;5.114;2022-12-07T07:27:55;101824.19;;;1.57;100.00
59170;BME280;52474;52.236;5.114;2022-12-07T07:30:21;101831.16;;;1.58;100.00
59170;BME280;52474;52.236;5.114;2022-12-07T07:32:46;101832.03;;;1.57;100.00
59170;BME280;52474;52.236;5.114;2022-12-07T07:35:12;101817.06;;;1.36;100.00
59170;BME280;52474;52.236;5.114;2022-12-07T07:37:40;101830.84;;;1.41;100.00
59170;BME280;52474;52.236;5.114;2022-12-07T07:40:07;101813.94;;;1.24;100.00
59170;BME280;52474;52.236;5.114;2022-12-07T07:42:32;101833.44;;;1.41;100.00
59170;BME280;52474;52.236;5.114;2022-12-07T07:44:58;101834.28;;;1.41;100.00
59170;BME280;52474;52.236;5.114;2022-12-07T07:47:24;101833.38;;;1.42;100.00
59170;BME280;52474;52.236;5.114;2022-12-07T07:49:49;101770.50;;;1.23;100.00
59170;BME280;52474;52.236;5.114;2022-12-07T07:52:15;101812.72;;;1.63;100.00
59170;BME280;52474;52.236;5.114;2022-12-07T07:54:41;101826.91;;;1.82;100.00
59170;BME280;52474;52.236;5.114;2022-12-07T07:57:06;101823.25;;;1.86;100.00
59170;BME280;52474;52.236;5.114;2022-12-07T07:59:32;101844.53;;;2.27;100.00
59170;BME280;52474;52.236;5.114;2022-12-07T08:01:57;101856.03;;;2.72;100.00
59170;BME280;52474;52.236;5.114;2022-12-07T08:04:23;101858.19;;;2.84;100.00
59170;BME280;52474;52.236;5.114;2022-12-07T08:06:49;101851.19;;;2.85;100.00
59170;BME280;52474;52.236;5.114;2022-12-07T08:09:15;101841.69;;;2.82;100.00
59170;BME280;52474;52.236;5.114;2022-12-07T08:11:40;101844.13;;;2.87;100.00
59170;BME280;52474;52.236;5.114;2022-12-07T08:14:06;101841.41;;;2.90;100.00
59170;BME280;52474;52.236;5.114;2022-12-07T08:16:32;101855.41;;;2.89;100.00
59170;BME280;52474;52.236;5.114;2022-12-07T08:18:57;101837.59;;;2.75;100.00
59170;BME280;52474;52.236;5.114;2022-12-07T08:21:23;101853.75;;;2.86;100.00
59170;BME280;52474;52.236;5.114;2022-12-07T08:23:49;101840.94;;;3.02;100.00
59170;BME280;52474;52.236;5.114;2022-12-07T08:26:16;101840.25;;;3.20;100.00
59170;BME280;52474;52.236;5.114;2022-12-07T08:28:42;101844.72;;;3.40;100.00
59170;BME280;52474;52.236;5.114;2022-12-07T08:31:12;101853.09;;;3.49;100.00
59170;BME280;52474;52.236;5.114;2022-12-07T08:33:39;101861.63;;;3.54;100.00
59170;BME280;52474;52.236;5.114;2022-12-07T08:36:10;101865.00;;;3.57;100.00
59170;BME280;52474;52.236;5.114;2022-12-07T08:38:37;101860.34;;;3.64;100.00
59170;BME280;52474;52.236;5.114;2022-12-07T08:41:04;101844.84;;;3.59;100.00
59170;BME280;52474;52.236;5.114;2022-12-07T08:43:30;101866.03;;;3.75;100.00
59170;BME280;52474;52.236;5.114;2022-12-07T08:46:09;101861.72;;;3.74;100.00
59170;BME280;52474;52.236;5.114;2022-12-07T08:48:44;101842.00;;;3.64;100.00
59170;BME280;52474;52.236;5.114;2022-12-07T08:51:11;101828.34;;;3.57;100.00
59170;BME280;52474;52.236;5.114;2022-12-07T08:53:38;101817.06;;;3.55;100.00
59170;BME280;52474;52.236;5.114;2022-12-07T08:56:05;101814.91;;;3.65;100.00
59170;BME280;52474;52.236;5.114;2022-12-07T08:58:33;101831.50;;;3.86;100.00
59170;BME280;52474;52.236;5.114;2022-12-07T09:00:59;101828.28;;;4.01;100.00
59170;BME280;52474;52.236;5.114;2022-12-07T09:03:25;101830.09;;;4.20;100.00
59170;BME280;52474;52.236;5.114;2022-12-07T09:05:53;101816.50;;;4.30;100.00
59170;BME280;52474;52.236;5.114;2022-12-07T09:08:19;101828.84;;;4.49;100.00
59170;BME280;52474;52.236;5.114;2022-12-07T09:10:46;101836.72;;;4.49;100.00
59170;BME280;52474;52.236;5.114;2022-12-07T09:13:13;101838.41;;;4.50;100.00
59170;BME280;52474;52.236;5.114;2022-12-07T09:15:38;101822.75;;;4.67;100.00
59170;BME280;52474;52.236;5.114;2022-12-07T09:18:04;101823.50;;;5.09;100.00
59170;BME280;52474;52.236;5.114;2022-12-07T09:20:30;101832.06;;;5.31;100.00
59170;BME280;52474;52.236;5.114;2022-12-07T09:22:56;101832.00;;;5.14;100.00
59170;BME280;52474;52.236;5.114;2022-12-07T09:25:22;101833.34;;;5.04;100.00
59170;BME280;52474;52.236;5.114;2022-12-07T09:27:47;101832.28;;;4.89;100.00
59170;BME280;52474;52.236;5.114;2022-12-07T09:30:13;101832.78;;;4.97;100.00
59170;BME280;52474;52.236;5.114;2022-12-07T09:32:39;101834.50;;;5.17;100.00
59170;BME280;52474;52.236;5.114;2022-12-07T09:35:05;101837.34;;;5.12;100.00
59170;BME280;52474;52.236;5.114;2022-12-07T09:37:30;101830.38;;;5.11;100.00
59170;BME280;52474;52.236;5.114;2022-12-07T09:40:01;101825.69;;;5.18;100.00
59170;BME280;52474;52.236;5.114;2022-12-07T09:42:29;101810.50;;;5.06;100.00
59170;BME280;52474;52.236;5.114;2022-12-07T09:44:58;101826.06;;;5.10;100.00
59170;BME280;52474;52.236;5.114;2022-12-07T09:47:24;101807.94;;;5.04;100.00
59170;BME280;52474;52.236;5.114;2022-12-07T09:49:50;101823.06;;;5.18;100.00
59170;BME280;52474;52.236;5.114;2022-12-07T09:52:25;101807.50;;;5.32;100.00
59170;BME280;52474;52.236;5.114;2022-12-07T09:54:52;101810.72;;;5.56;100.00
59170;BME280;52474;52.236;5.114;2022-12-07T09:57:22;101818.53;;;5.75;100.00
59170;BME280;52474;52.236;5.114;2022-12-07T09:59:50;101816.13;;;5.53;100.00
59170;BME280;52474;52.236;5.114;2022-12-07T10:02:44;101817.38;;;5.27;100.00
59170;BME280;52474;52.236;5.114;2022-12-07T10:05:18;101814.13;;;5.22;100.00
59170;BME280;52474;52.236;5.114;2022-12-07T10:07:45;101805.16;;;5.26;100.00
59170;BME280;52474;52.236;5.114;2022-12-07T10:10:17;101812.41;;;5.57;100.00
59170;BME280;52474;52.236;5.114;2022-12-07T10:13:03;101810.75;;;5.91;100.00
59170;BME280;52474;52.236;5.114;2022-12-07T10:18:18;101802.25;;;7.03;100.00
59170;BME280;52474;52.236;5.114;2022-12-07T10:20:48;101780.06;;;13.91;100.00
59170;BME280;52474;52.236;5.114;2022-12-07T10:23:18;101770.94;;;17.78;100.00
59170;BME280;52474;52.236;5.114;2022-12-07T10:25:44;101768.97;;;18.66;100.00
59170;BME280;52474;52.236;5.114;2022-12-07T10:28:18;101758.41;;;19.16;100.00
59170;BME280;52474;52.236;5.114;2022-12-07T10:35:57;101765.22;;;12.58;100.00
59170;BME280;52474;52.236;5.114;2022-12-07T10:38:25;101776.59;;;9.54;100.00
59170;BME280;52474;52.236;5.114;2022-12-07T10:41:10;101778.22;;;8.30;100.00
59170;BME280;52474;52.236;5.114;2022-12-07T10:43:35;101779.06;;;7.86;100.00
59170;BME280;52474;52.236;5.114;2022-12-07T10:51:39;101771.31;;;6.75;100.00
59170;BME280;52474;52.236;5.114;2022-12-07T10:54:29;101751.09;;;6.76;100.00
59170;BME280;52474;52.236;5.114;2022-12-07T10:57:27;101762.31;;;6.95;100.00
59170;BME280;52474;52.236;5.114;2022-12-07T11:00:01;101758.50;;;7.01;100.00
59170;BME280;52474;52.236;5.114;2022-12-07T11:02:44;101754.06;;;6.85;100.00
59170;BME280;52474;52.236;5.114;2022-12-07T11:05:19;101747.13;;;7.16;100.00
59170;BME280;52474;52.236;5.114;2022-12-07T11:07:58;101736.41;;;8.94;100.00
59170;BME280;52474;52.236;5.114;2022-12-07T11:10:45;101705.84;;;16.33;100.00
59170;BME280;52474;52.236;5.114;2022-12-07T11:24:17;101726.63;;;22.33;85.97
59170;BME280;52474;52.236;5.114;2022-12-07T11:29:35;101718.31;;;21.52;81.17
59170;BME280;52474;52.236;5.114;2022-12-07T11:37:37;101689.09;;;21.41;96.74
59170;BME280;52474;52.236;5.114;2022-12-07T11:42:35;101688.69;;;22.56;76.77
59170;BME280;52474;52.236;5.114;2022-12-07T11:45:20;101696.69;;;21.37;82.30
59170;BME280;52474;52.236;5.114;2022-12-07T11:48:04;101684.28;;;22.04;88.55
59170;BME280;52474;52.236;5.114;2022-12-07T11:50:37;101688.78;;;21.59;85.36
59170;BME280;52474;52.236;5.114;2022-12-07T11:55:56;101684.81;;;16.47;100.00
59170;BME280;52474;52.236;5.114;2022-12-07T11:58:48;101678.31;;;17.75;100.00
59170;BME280;52474;52.236;5.114;2022-12-07T12:01:33;101670.59;;;17.28;100.00
59170;BME280;52474;52.236;5.114;2022-12-07T12:04:07;101664.16;;;16.12;100.00
59170;BME280;52474;52.236;5.114;2022-12-07T12:06:42;101674.19;;;15.14;100.00
59170;BME280;52474;52.236;5.114;2022-12-07T12:09:14;101659.91;;;15.62;100.00
59170;BME280;52474;52.236;5.114;2022-12-07T12:12:12;101665.25;;;16.47;100.00
59170;BME280;52474;52.236;5.114;2022-12-07T12:20:49;101660.81;;;16.10;100.00
59170;BME280;52474;52.236;5.114;2022-12-07T12:23:34;101670.88;;;16.16;100.00
59170;BME280;52474;52.236;5.114;2022-12-07T12:26:03;101685.00;;;13.82;100.00
59170;BME280;52474;52.236;5.114;2022-12-07T12:28:54;101669.81;;;12.32;100.00
59170;BME280;52474;52.236;5.114;2022-12-07T12:33:50;101644.06;;;9.58;100.00
59170;BME280;52474;52.236;5.114;2022-12-07T12:39:09;101658.56;;;8.58;100.00
59170;BME280;52474;52.236;5.114;2022-12-07T12:46:48;101659.38;;;9.40;100.00
59170;BME280;52474;52.236;5.114;2022-12-07T12:51:43;101637.75;;;14.14;100.00
59170;BME280;52474;52.236;5.114;2022-12-07T12:59:35;101625.38;;;18.46;100.00
59170;BME280;52474;52.236;5.114;2022-12-07T13:04:54;101632.06;;;18.34;100.00
59170;BME280;52474;52.236;5.114;2022-12-07T13:10:39;101620.41;;;14.99;100.00
59170;BME280;52474;52.236;5.114;2022-12-07T13:15:53;101620.09;;;9.09;100.00
59170;BME280;52474;52.236;5.114;2022-12-07T13:26:36;101611.91;;;7.16;100.00
59170;BME280;52474;52.236;5.114;2022-12-07T13:29:15;101604.25;;;6.97;100.00
59170;BME280;52474;52.236;5.114;2022-12-07T13:32:21;101600.34;;;6.88;100.00
59170;BME280;52474;52.236;5.114;2022-12-07T13:34:48;101598.50;;;6.74;100.00
59170;BME280;52474;52.236;5.114;2022-12-07T13:37:26;101594.97;;;6.43;100.00
59170;BME280;52474;52.236;5.114;2022-12-07T13:39:54;101574.63;;;6.15;100.00
59170;BME280;52474;52.236;5.114;2022-12-07T13:42:28;101583.50;;;6.13;100.00
59170;BME280;52474;52.236;5.114;2022-12-07T13:44:55;101580.88;;;5.97;100.00
59170;BME280;52474;52.236;5.114;2022-12-07T13:47:43;101588.84;;;5.95;100.00
59170;BME280;52474;52.236;5.114;2022-12-07T13:50:28;101580.50;;;5.87;100.00
59170;BME280;52474;52.236;5.114;2022-12-07T13:52:56;101587.06;;;5.96;100.00
59170;BME280;52474;52.236;5.114;2022-12-07T13:55:22;101600.06;;;5.99;100.00
59170;BME280;52474;52.236;5.114;2022-12-07T13:57:51;101591.00;;;5.87;100.00
59170;BME280;52474;52.236;5.114;2022-12-07T14:00:23;101587.78;;;5.82;100.00
59170;BME280;52474;52.236;5.114;2022-12-07T14:05:26;101582.63;;;5.63;100.00
59170;BME280;52474;52.236;5.114;2022-12-07T14:08:21;101577.97;;;5.68;100.00
59170;BME280;52474;52.236;5.114;2022-12-07T14:13:33;101572.50;;;5.73;100.00
59170;BME280;52474;52.236;5.114;2022-12-07T14:16:16;101564.59;;;5.73;100.00
59170;BME280;52474;52.236;5.114;2022-12-07T14:18:43;101547.47;;;5.66;100.00
59170;BME280;52474;52.236;5.114;2022-12-07T14:23:36;101563.75;;;5.72;100.00
59170;BME280;52474;52.236;5.114;2022-12-07T14:26:12;101558.31;;;5.59;100.00
59170;BME280;52474;52.236;5.114;2022-12-07T14:28:42;101549.69;;;5.40;100.00
59170;BME280;52474;52.236;5.114;2022-12-07T14:33:39;101561.38;;;5.34;100.00
59170;BME280;52474;52.236;5.114;2022-12-07T14:36:05;101551.34;;;5.25;100.00
59170;BME280;52474;52.236;5.114;2022-12-07T14:38:31;101549.97;;;5.18;100.00
59170;BME280;52474;52.236;5.114;2022-12-07T14:40:56;101560.41;;;5.20;100.00
59170;BME280;52474;52.236;5.114;2022-12-07T14:43:42;101546.19;;;5.06;100.00
59170;BME280;52474;52.236;5.114;2022-12-07T14:46:09;101558.06;;;5.13;100.00
59170;BME280;52474;52.236;5.114;2022-12-07T14:48:34;101550.44;;;4.91;100.00
59170;BME280;52474;52.236;5.114;2022-12-07T14:51:00;101566.34;;;4.88;100.00
59170;BME280;52474;52.236;5.114;2022-12-07T14:53:35;101567.19;;;4.71;100.00
59170;BME280;52474;52.236;5.114;2022-12-07T14:56:03;101565.56;;;4.69;100.00
59170;BME280;52474;52.236;5.114;2022-12-07T14:58:31;101545.00;;;4.60;100.00